createdAt,value
2023-03-06T00:00:31.888Z,14.9
2023-03-06T00:01:34.419Z,15
2023-03-06T00:02:36.641Z,14.9
2023-03-06T00:03:39.289Z,15
2023-03-06T00:04:41.711Z,14.9
2023-03-06T00:05:44.087Z,14.9
2023-03-06T00:06:46.610Z,14.9
2023-03-06T00:07:49.123Z,14.9
2023-03-06T00:08:50.803Z,15
2023-03-06T00:09:53.346Z,15
2023-03-06T00:10:55.563Z,14.9
2023-03-06T00:11:58.166Z,15
2023-03-06T00:13:00.693Z,15.1
2023-03-06T00:14:03.191Z,15
2023-03-06T00:15:06.319Z,15
2023-03-06T00:16:08.970Z,14.9
2023-03-06T00:17:11.002Z,15
2023-03-06T00:18:13.531Z,15.1
2023-03-06T00:19:15.728Z,15.1
2023-03-06T00:20:17.965Z,15.1
2023-03-06T00:21:20.199Z,15
2023-03-06T00:22:22.706Z,15
2023-03-06T00:23:24.928Z,15.1
2023-03-06T00:24:27.440Z,15.1
2023-03-06T00:25:30.117Z,15
2023-03-06T00:26:32.838Z,15
2023-03-06T00:27:34.756Z,15
2023-03-06T00:28:37.241Z,14.9
2023-03-06T00:29:39.605Z,15.1
2023-03-06T00:30:41.552Z,15.1
2023-03-06T00:31:43.884Z,15
2023-03-06T00:32:46.470Z,15.1
2023-03-06T00:33:49.065Z,15.1
2023-03-06T00:34:51.658Z,15
2023-03-06T00:35:54.214Z,15.1
2023-03-06T00:36:56.655Z,15
2023-03-06T00:37:58.896Z,15
2023-03-06T00:39:01.465Z,15.1
2023-03-06T00:40:03.700Z,15
2023-03-06T00:41:05.650Z,15.1
2023-03-06T00:42:07.629Z,15.2
2023-03-06T00:43:10.085Z,15.2
2023-03-06T00:44:12.323Z,15.1
2023-03-06T00:45:14.860Z,15.2
2023-03-06T00:46:17.152Z,15.2
2023-03-06T00:47:19.767Z,15.1
2023-03-06T00:48:21.985Z,15
2023-03-06T00:49:24.464Z,15.1
2023-03-06T00:50:26.999Z,15
2023-03-06T00:51:29.258Z,15.1
2023-03-06T00:52:31.185Z,15.2
2023-03-06T00:53:33.778Z,15.2
2023-03-06T00:54:36.025Z,15.1
2023-03-06T00:55:38.515Z,15.2
2023-03-06T00:56:41.076Z,15.1
2023-03-06T00:57:43.022Z,15.2
2023-03-06T00:58:44.966Z,15.2
2023-03-06T00:59:47.456Z,15.2
2023-03-06T01:00:49.993Z,15.1
2023-03-06T01:01:52.766Z,15.1
2023-03-06T01:02:55.652Z,15.2
2023-03-06T01:03:58.142Z,15.2
2023-03-06T01:05:00.688Z,15.2
2023-03-06T01:06:03.209Z,15.1
2023-03-06T01:07:05.697Z,15.2
2023-03-06T01:08:07.675Z,15.2
2023-03-06T01:09:09.921Z,15.2
2023-03-06T01:10:12.176Z,15.2
2023-03-06T01:11:14.737Z,15.2
2023-03-06T01:12:17.342Z,15.2
2023-03-06T01:13:19.584Z,15.2
2023-03-06T01:14:21.846Z,15.2
2023-03-06T01:15:24.429Z,15.2
2023-03-06T01:16:26.425Z,15.2
2023-03-06T01:17:28.883Z,15.1
2023-03-06T01:18:31.467Z,15.1
2023-03-06T01:19:33.951Z,15.2
2023-03-06T01:20:36.159Z,15.1
2023-03-06T01:21:38.692Z,15.2
2023-03-06T01:22:41.214Z,15.2
2023-03-06T01:23:43.507Z,15.1
2023-03-06T01:24:45.776Z,15.1
2023-03-06T01:25:48.298Z,15.2
2023-03-06T01:26:50.547Z,15.2
2023-03-06T01:27:53.116Z,15.2
2023-03-06T01:28:55.361Z,15.3
2023-03-06T01:29:57.895Z,15.2
2023-03-06T01:31:00.451Z,15.2
2023-03-06T01:32:03.313Z,15.2
2023-03-06T01:33:06.523Z,15.2
2023-03-06T01:34:09.134Z,15.3
2023-03-06T01:35:11.655Z,15.2
2023-03-06T01:36:14.240Z,15.3
2023-03-06T01:37:16.800Z,15.3
2023-03-06T01:38:19.050Z,15.2
2023-03-06T01:39:21.643Z,15.3
2023-03-06T01:40:24.119Z,15.3
2023-03-06T01:41:26.357Z,15.2
2023-03-06T01:42:28.865Z,15.2
2023-03-06T01:43:35.004Z,15.2
2023-03-06T01:44:37.505Z,15.2
2023-03-06T01:45:39.800Z,15.2
2023-03-06T01:46:42.456Z,15.3
2023-03-06T01:47:45.033Z,15.2
2023-03-06T01:48:47.277Z,15.2
2023-03-06T01:49:49.857Z,15.2
2023-03-06T01:50:52.062Z,15.2
2023-03-06T01:51:53.985Z,15.3
2023-03-06T01:52:56.199Z,15.3
2023-03-06T01:53:58.406Z,15.2
2023-03-06T01:55:00.901Z,15.2
2023-03-06T01:56:03.400Z,15.2
2023-03-06T01:57:05.305Z,15.2
2023-03-06T01:58:07.557Z,15.3
2023-03-06T01:59:10.130Z,15.3
2023-03-06T02:00:12.066Z,15.3
2023-03-06T02:01:14.403Z,15.3
2023-03-06T02:02:17.385Z,15.2
2023-03-06T02:03:19.868Z,15.3
2023-03-06T02:04:22.460Z,15.2
2023-03-06T02:05:25.009Z,15.3
2023-03-06T02:06:26.674Z,15.2
2023-03-06T02:07:28.900Z,15.2
2023-03-06T02:08:31.433Z,15.3
2023-03-06T02:09:33.902Z,15.3
2023-03-06T02:10:36.107Z,15.3
2023-03-06T02:11:38.544Z,15.3
2023-03-06T02:12:41.322Z,15.3
2023-03-06T02:13:43.833Z,15.3
2023-03-06T02:14:46.347Z,15.3
2023-03-06T02:15:48.589Z,15.4
2023-03-06T02:16:51.255Z,15.3
2023-03-06T02:17:54.019Z,15.2
2023-03-06T02:18:56.045Z,15.3
2023-03-06T02:19:58.322Z,15.3
2023-03-06T02:21:00.614Z,15.3
2023-03-06T02:22:03.120Z,15.4
2023-03-06T02:23:05.631Z,15.3
2023-03-06T02:24:07.272Z,15.3
2023-03-06T02:25:09.502Z,15.4
2023-03-06T02:26:11.739Z,15.3
2023-03-06T02:27:14.244Z,15.3
2023-03-06T02:28:16.474Z,15.3
2023-03-06T02:29:19.020Z,15.3
2023-03-06T02:30:21.535Z,15.3
2023-03-06T02:31:24.042Z,15.3
2023-03-06T02:32:26.592Z,15.3
2023-03-06T02:33:29.400Z,15.3
2023-03-06T02:34:31.637Z,15.3
2023-03-06T02:35:34.231Z,15.3
2023-03-06T02:36:36.960Z,15.3
2023-03-06T02:37:39.158Z,15.2
2023-03-06T02:38:41.094Z,15.3
2023-03-06T02:39:43.593Z,15.3
2023-03-06T02:40:45.525Z,15.3
2023-03-06T02:41:47.743Z,15.3
2023-03-06T02:42:50.232Z,15.3
2023-03-06T02:43:52.737Z,15.3
2023-03-06T02:44:55.254Z,15.2
2023-03-06T02:45:57.282Z,15.3
2023-03-06T02:46:59.889Z,15.2
2023-03-06T02:48:02.437Z,15.4
2023-03-06T02:49:04.655Z,15.3
2023-03-06T02:50:07.118Z,15.3
2023-03-06T02:51:09.372Z,15.3
2023-03-06T02:52:11.933Z,15.4
2023-03-06T02:53:13.888Z,15.3
2023-03-06T02:54:16.112Z,15.3
2023-03-06T02:55:18.607Z,15.3
2023-03-06T02:56:21.109Z,15.3
2023-03-06T02:57:23.629Z,15.3
2023-03-06T02:58:25.844Z,15.3
2023-03-06T02:59:27.831Z,15.3
2023-03-06T03:00:30.038Z,15.2
2023-03-06T03:01:32.691Z,15.3
2023-03-06T03:02:35.104Z,15.3
2023-03-06T03:03:37.630Z,15.3
2023-03-06T03:04:39.969Z,15.4
2023-03-06T03:05:42.459Z,15.4
2023-03-06T03:06:45.024Z,15.3
2023-03-06T03:07:47.618Z,15.3
2023-03-06T03:08:50.135Z,15.5
2023-03-06T03:09:52.675Z,15.3
2023-03-06T03:10:54.616Z,15.4
2023-03-06T03:11:56.840Z,15.3
2023-03-06T03:12:59.373Z,15.4
2023-03-06T03:14:01.888Z,15.3
2023-03-06T03:15:04.101Z,15.2
2023-03-06T03:16:06.732Z,15.3
2023-03-06T03:17:09.274Z,15.3
2023-03-06T03:18:11.792Z,15.3
2023-03-06T03:19:14.291Z,15.3
2023-03-06T03:20:15.953Z,15.3
2023-03-06T03:21:18.451Z,15.3
2023-03-06T03:22:20.605Z,15.3
2023-03-06T03:23:22.938Z,15.3
2023-03-06T03:24:24.688Z,15.3
2023-03-06T03:25:26.826Z,15.3
2023-03-06T03:26:28.808Z,15.3
2023-03-06T03:27:31.027Z,15.3
2023-03-06T03:28:33.548Z,15.3
2023-03-06T03:29:35.751Z,15.4
2023-03-06T03:30:38.229Z,15.3
2023-03-06T03:31:40.500Z,15.3
2023-03-06T03:32:43.007Z,15.3
2023-03-06T03:33:45.498Z,15.3
2023-03-06T03:34:47.987Z,15.4
2023-03-06T03:35:50.604Z,15.4
2023-03-06T03:36:53.209Z,15.3
2023-03-06T03:37:55.740Z,15.3
2023-03-06T03:38:58.021Z,15.3
2023-03-06T03:40:00.568Z,15.2
2023-03-06T03:41:02.814Z,15.6
2023-03-06T03:42:05.379Z,15.3
2023-03-06T03:43:07.567Z,15.4
2023-03-06T03:44:10.062Z,15.5
2023-03-06T03:45:12.577Z,15.3
2023-03-06T03:46:14.974Z,15.3
2023-03-06T03:47:17.511Z,15.3
2023-03-06T03:48:20.031Z,15.4
2023-03-06T03:49:22.652Z,15.3
2023-03-06T03:50:24.868Z,15.3
2023-03-06T03:51:27.271Z,15.3
2023-03-06T03:52:29.502Z,15.3
2023-03-06T03:53:32.016Z,15.2
2023-03-06T03:54:34.618Z,15.4
2023-03-06T03:55:36.844Z,15.3
2023-03-06T03:56:39.332Z,15.3
2023-03-06T03:57:41.302Z,15.3
2023-03-06T03:58:43.569Z,15.3
2023-03-06T03:59:46.168Z,15.3
2023-03-06T04:00:48.484Z,15.4
2023-03-06T04:01:51.142Z,15.4
2023-03-06T04:02:53.110Z,15.3
2023-03-06T04:03:55.365Z,15.3
2023-03-06T04:04:58.037Z,15.4
2023-03-06T04:06:00.553Z,15.3
2023-03-06T04:07:02.793Z,15.4
2023-03-06T04:08:05.278Z,15.5
2023-03-06T04:09:07.829Z,15.5
2023-03-06T04:10:10.430Z,15.5
2023-03-06T04:11:12.925Z,15.3
2023-03-06T04:12:14.589Z,15.3
2023-03-06T04:13:16.802Z,15.4
2023-03-06T04:14:19.040Z,15.3
2023-03-06T04:15:21.226Z,15.3
2023-03-06T04:16:23.805Z,15.3
2023-03-06T04:17:26.481Z,15.3
2023-03-06T04:18:28.706Z,15.3
2023-03-06T04:19:31.245Z,15.3
2023-03-06T04:20:33.181Z,15.3
2023-03-06T04:21:35.382Z,15.3
2023-03-06T04:22:37.318Z,15.3
2023-03-06T04:23:39.829Z,15.2
2023-03-06T04:24:42.069Z,15.4
2023-03-06T04:25:44.765Z,15.2
2023-03-06T04:26:47.273Z,15.3
2023-03-06T04:27:49.835Z,15.3
2023-03-06T04:28:52.061Z,15.2
2023-03-06T04:29:54.281Z,15.2
2023-03-06T04:30:56.468Z,15.3
2023-03-06T04:31:58.415Z,15.3
2023-03-06T04:33:01.016Z,15.3
2023-03-06T04:34:03.501Z,15.2
2023-03-06T04:35:06.060Z,15.3
2023-03-06T04:36:08.639Z,15.2
2023-03-06T04:37:10.932Z,15.2
2023-03-06T04:38:13.479Z,15.3
2023-03-06T04:39:15.975Z,15.2
2023-03-06T04:40:18.792Z,15.2
2023-03-06T04:41:22.330Z,15.2
2023-03-06T04:42:25.186Z,15.2
2023-03-06T04:43:27.565Z,15.2
2023-03-06T04:44:30.130Z,15.3
2023-03-06T04:45:32.711Z,15.2
2023-03-06T04:46:35.467Z,15.2
2023-03-06T04:47:37.972Z,15.2
2023-03-06T04:48:40.487Z,15.2
2023-03-06T04:49:42.993Z,15.2
2023-03-06T04:50:45.530Z,15.2
2023-03-06T04:51:48.019Z,15.2
2023-03-06T04:52:50.725Z,15.2
2023-03-06T04:53:53.243Z,15.2
2023-03-06T04:54:55.746Z,15.2
2023-03-06T04:55:58.244Z,15.2
2023-03-06T04:57:00.833Z,15.3
2023-03-06T04:58:02.803Z,15.2
2023-03-06T04:59:05.312Z,15.2
2023-03-06T05:00:07.521Z,15.2
2023-03-06T05:01:09.869Z,15.2
2023-03-06T05:02:12.756Z,15.2
2023-03-06T05:03:15.160Z,15.2
2023-03-06T05:04:17.649Z,15.2
2023-03-06T05:05:20.153Z,15.2
2023-03-06T05:06:22.408Z,15.1
2023-03-06T05:07:24.886Z,15.2
2023-03-06T05:08:27.368Z,15.3
2023-03-06T05:09:29.589Z,15.3
2023-03-06T05:10:32.093Z,15.2
2023-03-06T05:11:34.331Z,15.2
2023-03-06T05:12:36.618Z,15.2
2023-03-06T05:13:39.152Z,15.2
2023-03-06T05:14:41.378Z,15.2
2023-03-06T05:15:43.630Z,15.2
2023-03-06T05:16:46.237Z,15.2
2023-03-06T05:17:48.987Z,15.3
2023-03-06T05:18:51.496Z,15.2
2023-03-06T05:19:54.013Z,15.2
2023-03-06T05:20:56.514Z,15.2
2023-03-06T05:21:59.019Z,15.2
2023-03-06T05:23:01.521Z,15.3
2023-03-06T05:24:04.106Z,15.2
2023-03-06T05:25:06.335Z,15.2
2023-03-06T05:26:08.596Z,15.2
2023-03-06T05:27:10.825Z,15.2
2023-03-06T05:28:13.428Z,15.2
2023-03-06T05:29:15.921Z,15.2
2023-03-06T05:30:18.459Z,15.2
2023-03-06T05:31:21.091Z,15.2
2023-03-06T05:32:23.899Z,15.2
2023-03-06T05:33:26.324Z,15.2
2023-03-06T05:34:28.580Z,15.2
2023-03-06T05:35:31.139Z,15.2
2023-03-06T05:36:33.924Z,15.2
2023-03-06T05:37:36.494Z,15.2
2023-03-06T05:38:39.748Z,15.2
2023-03-06T05:39:42.219Z,15.2
2023-03-06T05:40:44.747Z,15.2
2023-03-06T05:41:47.021Z,15.2
2023-03-06T05:42:49.319Z,15.2
2023-03-06T05:43:51.908Z,15.1
2023-03-06T05:44:53.301Z,15.3
2023-03-06T05:45:55.304Z,15.2
2023-03-06T05:46:57.379Z,15.2
2023-03-06T05:47:59.861Z,15.2
2023-03-06T05:49:02.349Z,15.1
2023-03-06T05:50:04.053Z,15.1
2023-03-06T05:51:06.301Z,15.1
2023-03-06T05:52:08.819Z,15.2
2023-03-06T05:53:11.405Z,15.2
2023-03-06T05:54:14.117Z,15.2
2023-03-06T05:55:16.340Z,15.2
2023-03-06T05:56:18.575Z,15.2
2023-03-06T05:57:21.083Z,15.2
2023-03-06T05:58:23.624Z,15.1
2023-03-06T05:59:26.197Z,15.2
2023-03-06T06:00:28.407Z,15.2
2023-03-06T06:01:30.927Z,15.2
2023-03-06T06:02:33.580Z,15.2
2023-03-06T06:03:36.096Z,15.2
2023-03-06T06:04:38.273Z,15.1
2023-03-06T06:05:40.503Z,15.2
2023-03-06T06:06:42.480Z,15.2
2023-03-06T06:07:45.011Z,15.2
2023-03-06T06:08:47.553Z,15.1
2023-03-06T06:09:50.030Z,15.2
2023-03-06T06:10:54.026Z,15.2
2023-03-06T06:11:56.228Z,15.2
2023-03-06T06:12:58.721Z,15.2
2023-03-06T06:14:01.251Z,15.1
2023-03-06T06:15:03.878Z,15.2
2023-03-06T06:16:06.442Z,15.1
2023-03-06T06:17:08.859Z,15.2
2023-03-06T06:18:11.106Z,15.1
2023-03-06T06:19:13.694Z,15.1
2023-03-06T06:20:15.931Z,15.1
2023-03-06T06:21:18.419Z,15.2
2023-03-06T06:22:20.667Z,15.2
2023-03-06T06:23:23.180Z,15.1
2023-03-06T06:24:25.703Z,15.1
2023-03-06T06:25:27.942Z,15.2
2023-03-06T06:26:30.445Z,15.1
2023-03-06T06:27:32.975Z,15.2
2023-03-06T06:28:35.195Z,15.1
2023-03-06T06:29:37.776Z,15.1
2023-03-06T06:30:40.339Z,15.2
2023-03-06T06:31:42.583Z,15.2
2023-03-06T06:32:44.814Z,15.1
2023-03-06T06:33:47.058Z,15.2
2023-03-06T06:34:49.570Z,15.2
2023-03-06T06:35:52.159Z,15.2
2023-03-06T06:36:54.956Z,15.2
2023-03-06T06:37:57.466Z,15.1
2023-03-06T06:38:59.982Z,15.2
2023-03-06T06:40:02.550Z,15.1
2023-03-06T06:43:14.706Z,15.1
2023-03-06T06:44:17.214Z,15.1
2023-03-06T06:45:19.740Z,15.2
2023-03-06T06:47:27.467Z,15.1
2023-03-06T06:48:29.751Z,15.1
2023-03-06T06:49:32.257Z,15.1
2023-03-06T06:50:34.230Z,15
2023-03-06T06:51:36.488Z,15.2
2023-03-06T06:52:39.029Z,15.1
2023-03-06T06:53:40.988Z,15.2
2023-03-06T06:54:42.973Z,15.1
2023-03-06T06:55:45.518Z,15.1
2023-03-06T06:56:47.768Z,15.2
2023-03-06T06:57:50.328Z,15.1
2023-03-06T06:58:52.827Z,15.1
2023-03-06T07:00:00.477Z,15.2
2023-03-06T07:01:03.076Z,15.1
2023-03-06T07:02:05.680Z,15.1
2023-03-06T07:03:08.180Z,15.1
2023-03-06T07:04:10.793Z,15.1
2023-03-06T07:05:13.171Z,15.2
2023-03-06T07:06:15.393Z,15.2
2023-03-06T07:07:17.612Z,15.2
2023-03-06T07:08:19.839Z,15.1
2023-03-06T07:09:22.047Z,15.1
2023-03-06T07:10:24.596Z,15
2023-03-06T07:11:27.203Z,15.1
2023-03-06T07:12:29.750Z,15
2023-03-06T07:13:32.282Z,15.2
2023-03-06T07:14:34.853Z,15.1
2023-03-06T07:15:37.533Z,15.1
2023-03-06T07:16:39.975Z,15.1
2023-03-06T07:17:42.281Z,15.2
2023-03-06T07:18:44.965Z,15.2
2023-03-06T07:19:47.354Z,15.1
2023-03-06T07:20:49.978Z,15.2
2023-03-06T07:21:52.212Z,15.1
2023-03-06T07:22:54.754Z,15.2
2023-03-06T07:23:57.484Z,15.1
2023-03-06T07:24:59.833Z,15
2023-03-06T07:26:02.121Z,15.1
2023-03-06T07:27:04.114Z,15.2
2023-03-06T07:28:06.806Z,15.1
2023-03-06T07:29:09.075Z,15.2
2023-03-06T07:30:11.640Z,15.2
2023-03-06T07:31:13.727Z,15.2
2023-03-06T07:32:16.553Z,15
2023-03-06T07:33:19.296Z,15
2023-03-06T07:34:21.549Z,15.1
2023-03-06T07:35:23.592Z,15
2023-03-06T07:36:26.133Z,15.2
2023-03-06T07:37:28.670Z,15.1
2023-03-06T07:38:30.893Z,15.1
2023-03-06T07:39:33.133Z,15.1
2023-03-06T07:40:35.669Z,15.1
2023-03-06T07:41:38.189Z,15.1
2023-03-06T07:42:40.798Z,15.1
2023-03-06T07:43:43.324Z,15.2
2023-03-06T07:44:45.861Z,14.9
2023-03-06T07:45:48.418Z,15
2023-03-06T07:46:50.535Z,15.1
2023-03-06T07:47:52.985Z,15.1
2023-03-06T07:48:55.592Z,15.1
2023-03-06T07:49:58.096Z,15.2
2023-03-06T07:51:00.364Z,15
2023-03-06T07:52:02.651Z,15.1
2023-03-06T07:53:04.012Z,15.1
2023-03-06T07:54:06.239Z,15
2023-03-06T07:55:08.514Z,15.1
2023-03-06T07:56:11.056Z,15.1
2023-03-06T07:57:13.328Z,15.1
2023-03-06T07:58:15.611Z,15.1
2023-03-06T07:59:17.977Z,15.1
2023-03-06T08:00:20.520Z,15.2
2023-03-06T08:01:23.042Z,14.9
2023-03-06T08:02:25.432Z,15.1
2023-03-06T08:03:27.499Z,15.2
2023-03-06T08:04:30.574Z,15.1
2023-03-06T08:05:33.138Z,15.1
2023-03-06T08:06:35.398Z,14.9
2023-03-06T08:07:37.912Z,15
2023-03-06T08:08:40.452Z,15
2023-03-06T08:09:42.387Z,15.2
2023-03-06T08:10:44.838Z,14.9
2023-03-06T08:11:47.354Z,15.2
2023-03-06T08:12:49.627Z,15.1
2023-03-06T08:13:51.920Z,15.1
2023-03-06T08:14:54.281Z,15.2
2023-03-06T08:15:56.885Z,14.8
2023-03-06T08:16:59.485Z,15.1
2023-03-06T08:18:02.042Z,15.1
2023-03-06T08:19:04.627Z,15.1
2023-03-06T08:20:07.216Z,15.1
2023-03-06T08:21:09.493Z,15
2023-03-06T08:22:12.021Z,15.1
2023-03-06T08:23:14.570Z,15.2
2023-03-06T08:24:16.877Z,15
2023-03-06T08:25:19.428Z,15
2023-03-06T08:26:21.701Z,15
2023-03-06T08:27:24.258Z,14.9
2023-03-06T08:28:26.521Z,15.1
2023-03-06T08:29:28.977Z,15.1
2023-03-06T08:30:33.998Z,15.1
2023-03-06T08:31:36.630Z,15
2023-03-06T08:32:39.578Z,14.9
2023-03-06T08:33:42.584Z,14.9
2023-03-06T08:34:44.289Z,15
2023-03-06T08:35:46.983Z,15
2023-03-06T08:36:49.349Z,15
2023-03-06T08:37:51.870Z,15
2023-03-06T08:38:54.109Z,14.9
2023-03-06T08:39:56.622Z,15
2023-03-06T08:40:59.201Z,15
2023-03-06T08:42:01.456Z,15.1
2023-03-06T08:43:04.048Z,14.9
2023-03-06T08:44:06.601Z,15
2023-03-06T08:45:09.153Z,15
2023-03-06T08:46:11.711Z,15
2023-03-06T08:47:13.673Z,14.9
2023-03-06T08:48:16.026Z,14.9
2023-03-06T08:49:18.588Z,15.1
2023-03-06T08:50:21.142Z,15
2023-03-06T08:51:23.931Z,15
2023-03-06T08:52:26.582Z,15.1
2023-03-06T08:54:33.534Z,15
2023-03-06T08:55:36.056Z,14.9
2023-03-06T08:56:38.278Z,15
2023-03-06T08:57:39.970Z,15.1
2023-03-06T08:58:41.933Z,15
2023-03-06T08:59:44.175Z,14.9
2023-03-06T09:00:46.836Z,15.1
2023-03-06T09:01:49.570Z,15
2023-03-06T09:02:51.836Z,15
2023-03-06T09:03:54.379Z,15
2023-03-06T09:04:56.901Z,15.1
2023-03-06T09:05:59.543Z,15.1
2023-03-06T09:07:02.198Z,15.2
2023-03-06T09:08:04.440Z,15
2023-03-06T09:09:06.708Z,14.9
2023-03-06T09:10:09.009Z,14.9
2023-03-06T09:11:11.696Z,14.9
2023-03-06T09:12:14.237Z,14.9
2023-03-06T09:13:16.804Z,15
2023-03-06T09:14:18.813Z,14.9
2023-03-06T09:15:21.345Z,15
2023-03-06T09:16:23.839Z,14.9
2023-03-06T09:17:26.408Z,15.1
2023-03-06T09:18:28.845Z,15.1
2023-03-06T09:19:31.094Z,14.9
2023-03-06T09:20:33.108Z,15
2023-03-06T09:21:35.714Z,14.9
2023-03-06T09:22:38.394Z,14.9
2023-03-06T09:23:40.364Z,14.9
2023-03-06T09:24:42.913Z,15.1
2023-03-06T09:25:45.223Z,14.9
2023-03-06T09:28:57.423Z,14.9
2023-03-06T09:29:59.395Z,15
2023-03-06T09:31:01.494Z,15.1
2023-03-06T09:32:04.589Z,14.8
2023-03-06T09:33:07.288Z,15
2023-03-06T09:34:09.567Z,14.9
2023-03-06T09:35:12.096Z,14.9
2023-03-06T09:36:14.632Z,15
2023-03-06T09:37:17.649Z,14.9
2023-03-06T09:38:20.304Z,14.9
2023-03-06T09:39:22.909Z,15.1
2023-03-06T09:40:25.217Z,15
2023-03-06T09:41:27.204Z,15
2023-03-06T09:42:29.432Z,14.9
2023-03-06T09:43:31.949Z,15
2023-03-06T09:44:34.182Z,15
2023-03-06T09:45:36.451Z,14.9
2023-03-06T09:46:38.977Z,15
2023-03-06T09:47:41.378Z,15
2023-03-06T09:48:43.880Z,15
2023-03-06T09:49:46.153Z,14.9
2023-03-06T09:50:48.380Z,15
2023-03-06T09:51:50.367Z,14.9
2023-03-06T09:52:52.676Z,14.9
2023-03-06T09:53:55.413Z,15.1
2023-03-06T09:54:57.952Z,14.8
2023-03-06T09:56:00.281Z,14.9
2023-03-06T09:57:02.814Z,15
2023-03-06T09:59:10.286Z,15
2023-03-06T10:00:12.800Z,14.9
2023-03-06T10:01:15.036Z,15
2023-03-06T10:02:17.804Z,14.9
2023-03-06T10:03:20.671Z,14.9
2023-03-06T10:04:23.554Z,14.9
2023-03-06T10:05:26.086Z,14.9
2023-03-06T10:06:28.293Z,14.9
2023-03-06T10:07:30.235Z,14.9
2023-03-06T10:08:32.836Z,14.9
2023-03-06T10:09:35.456Z,15.1
2023-03-06T10:10:37.428Z,14.9
2023-03-06T10:11:40.072Z,14.8
2023-03-06T10:12:42.591Z,15
2023-03-06T10:13:45.157Z,14.9
2023-03-06T10:14:49.812Z,14.9
2023-03-06T10:15:51.926Z,15
2023-03-06T10:16:54.553Z,15
2023-03-06T10:17:56.803Z,15
2023-03-06T10:18:59.340Z,15
2023-03-06T10:20:01.900Z,15
2023-03-06T10:22:09.158Z,14.9
2023-03-06T10:23:12.518Z,14.9
2023-03-06T10:24:14.829Z,15.1
2023-03-06T10:25:17.434Z,14.9
2023-03-06T10:26:19.982Z,14.9
2023-03-06T10:27:22.769Z,15
2023-03-06T10:28:25.444Z,15
2023-03-06T10:29:28.014Z,15
2023-03-06T10:30:30.262Z,15
2023-03-06T10:31:32.831Z,15
2023-03-06T10:33:40.603Z,15.1
2023-03-06T10:34:42.879Z,14.9
2023-03-06T10:35:45.234Z,14.9
2023-03-06T10:36:47.848Z,14.9
2023-03-06T10:37:50.374Z,15
2023-03-06T10:38:52.625Z,15.1
2023-03-06T10:39:54.648Z,14.9
2023-03-06T10:40:57.434Z,15
2023-03-06T10:41:59.412Z,15
2023-03-06T10:44:06.943Z,15
2023-03-06T10:45:09.232Z,15
2023-03-06T10:46:11.586Z,14.8
2023-03-06T10:47:13.968Z,15
2023-03-06T10:48:16.508Z,15
2023-03-06T10:49:19.020Z,15
2023-03-06T10:50:21.750Z,15
2023-03-06T10:51:24.293Z,15
2023-03-06T10:52:26.832Z,14.9
2023-03-06T10:53:29.356Z,15
2023-03-06T10:54:31.907Z,14.9
2023-03-06T10:55:34.252Z,15.1
2023-03-06T10:56:36.849Z,15
2023-03-06T10:57:39.402Z,15.2
2023-03-06T10:58:41.947Z,15
2023-03-06T10:59:44.477Z,15.1
2023-03-06T11:00:46.745Z,15
2023-03-06T11:01:49.174Z,14.9
2023-03-06T11:02:51.411Z,15
2023-03-06T11:03:53.963Z,14.9
2023-03-06T11:04:56.628Z,14.9
2023-03-06T11:05:59.246Z,15.1
2023-03-06T11:07:01.780Z,14.9
2023-03-06T11:08:03.719Z,14.9
2023-03-06T11:09:06.236Z,14.9
2023-03-06T11:10:08.729Z,15
2023-03-06T11:11:11.018Z,14.9
2023-03-06T11:12:13.637Z,15
2023-03-06T11:13:16.157Z,14.9
2023-03-06T11:14:18.382Z,15
2023-03-06T11:15:21.005Z,14.9
2023-03-06T11:17:28.281Z,15
2023-03-06T11:18:30.824Z,15
2023-03-06T11:19:33.073Z,14.9
2023-03-06T11:21:40.629Z,15
2023-03-06T11:22:43.130Z,15.1
2023-03-06T11:23:45.691Z,15.1
2023-03-06T11:24:47.994Z,15
2023-03-06T11:25:50.213Z,15
2023-03-06T11:26:52.896Z,15
2023-03-06T11:27:55.519Z,14.9
2023-03-06T11:28:57.505Z,15
2023-03-06T11:29:59.956Z,15
2023-03-06T11:31:02.370Z,14.9
2023-03-06T11:32:04.881Z,14.9
2023-03-06T11:33:07.400Z,15
2023-03-06T11:34:09.682Z,15.1
2023-03-06T11:35:12.243Z,15.1
2023-03-06T11:36:14.604Z,15
2023-03-06T11:37:17.184Z,15.1
2023-03-06T11:38:19.446Z,15
2023-03-06T11:39:21.969Z,14.9
2023-03-06T11:40:24.536Z,14.9
2023-03-06T11:41:26.793Z,14.9
2023-03-06T11:42:29.433Z,15
2023-03-06T11:43:32.134Z,15
2023-03-06T11:44:33.834Z,14.9
2023-03-06T11:45:36.080Z,15
2023-03-06T11:46:38.220Z,15
2023-03-06T11:47:41.029Z,14.9
2023-03-06T11:48:43.532Z,14.9
2023-03-06T11:49:46.077Z,15
2023-03-06T11:50:48.034Z,14.9
2023-03-06T11:51:50.556Z,14.8
2023-03-06T11:52:52.854Z,14.9
2023-03-06T11:53:55.386Z,15
2023-03-06T11:54:57.375Z,14.9
2023-03-06T11:55:59.643Z,15
2023-03-06T11:57:01.629Z,14.9
2023-03-06T11:58:04.221Z,15
2023-03-06T11:59:06.908Z,15.1
2023-03-06T12:00:09.149Z,15
2023-03-06T12:01:11.404Z,15
2023-03-06T12:02:13.831Z,15
2023-03-06T12:03:16.721Z,15
2023-03-06T12:04:18.670Z,15
2023-03-06T12:05:20.783Z,14.9
2023-03-06T12:06:23.348Z,15
2023-03-06T12:07:25.581Z,14.9
2023-03-06T12:08:27.875Z,15
2023-03-06T12:09:30.410Z,14.9
2023-03-06T12:10:32.638Z,14.8
2023-03-06T12:11:35.172Z,15
2023-03-06T12:12:37.774Z,14.9
2023-03-06T12:13:40.060Z,15
2023-03-06T12:14:42.645Z,14.9
2023-03-06T12:15:44.677Z,14.9
2023-03-06T12:16:47.296Z,15
2023-03-06T12:17:50.048Z,14.9
2023-03-06T12:18:52.013Z,14.9
2023-03-06T12:19:54.572Z,14.9
2023-03-06T12:20:56.895Z,14.9
2023-03-06T12:21:59.398Z,14.8
2023-03-06T12:24:06.828Z,14.9
2023-03-06T12:25:09.359Z,14.8
2023-03-06T12:26:11.899Z,14.8
2023-03-06T12:27:13.882Z,15
2023-03-06T12:28:16.430Z,14.8
2023-03-06T12:29:18.972Z,14.9
2023-03-06T12:30:21.548Z,15
2023-03-06T12:31:24.278Z,14.9
2023-03-06T12:32:27.012Z,15
2023-03-06T12:33:29.639Z,15
2023-03-06T12:34:32.224Z,14.9
2023-03-06T12:35:34.877Z,14.9
2023-03-06T12:36:37.668Z,14.9
2023-03-06T12:37:39.932Z,14.9
2023-03-06T12:38:42.448Z,15
2023-03-06T12:39:45.175Z,15
2023-03-06T12:40:47.752Z,15
2023-03-06T12:41:50.113Z,15
2023-03-06T12:42:52.670Z,15
2023-03-06T12:43:55.184Z,15
2023-03-06T12:44:57.202Z,14.9
2023-03-06T12:45:59.941Z,15.1
2023-03-06T12:47:02.434Z,15
2023-03-06T12:48:04.662Z,14.9
2023-03-06T12:49:06.626Z,14.9
2023-03-06T12:50:08.841Z,15
2023-03-06T12:51:11.384Z,14.9
2023-03-06T12:53:19.071Z,14.9
2023-03-06T12:54:21.308Z,14.9
2023-03-06T12:56:28.818Z,14.8
2023-03-06T12:57:31.070Z,15
2023-03-06T12:58:33.603Z,15
2023-03-06T12:59:36.186Z,14.8
2023-03-06T13:00:38.467Z,14.7
2023-03-06T13:01:41.294Z,14.8
2023-03-06T13:02:43.674Z,14.8
2023-03-06T13:03:46.298Z,14.9
2023-03-06T13:04:48.562Z,14.9
2023-03-06T13:05:50.551Z,15
2023-03-06T13:06:52.996Z,15
2023-03-06T13:07:55.551Z,14.9
2023-03-06T13:08:58.081Z,14.9
2023-03-06T13:10:00.628Z,14.9
2023-03-06T13:11:03.210Z,15
2023-03-06T13:12:05.729Z,15
2023-03-06T13:13:08.300Z,14.9
2023-03-06T13:14:10.806Z,15
2023-03-06T13:15:13.299Z,14.9
2023-03-06T13:16:15.496Z,15
2023-03-06T13:17:18.404Z,15.1
2023-03-06T13:18:20.665Z,14.9
2023-03-06T13:19:23.255Z,15
2023-03-06T13:20:25.566Z,15
2023-03-06T13:21:28.150Z,14.9
2023-03-06T13:22:30.771Z,14.9
2023-03-06T13:23:33.029Z,14.9
2023-03-06T13:24:35.684Z,14.8
2023-03-06T13:26:43.057Z,14.9
2023-03-06T13:27:45.552Z,14.9
2023-03-06T13:28:47.857Z,14.9
2023-03-06T13:29:50.082Z,14.9
2023-03-06T13:30:53.790Z,14.9
2023-03-06T13:31:56.494Z,15
2023-03-06T13:32:58.923Z,14.9
2023-03-06T13:34:01.213Z,14.8
2023-03-06T13:35:03.549Z,14.8
2023-03-06T13:36:05.600Z,15
2023-03-06T13:37:07.576Z,15
2023-03-06T13:38:10.065Z,14.9
2023-03-06T13:39:12.644Z,15
2023-03-06T13:40:15.169Z,14.9
2023-03-06T13:41:17.171Z,14.9
2023-03-06T13:42:19.736Z,15
2023-03-06T13:43:22.285Z,15
2023-03-06T13:44:24.652Z,14.8
2023-03-06T13:45:27.243Z,14.9
2023-03-06T13:46:29.296Z,14.9
2023-03-06T13:47:31.829Z,14.9
2023-03-06T13:49:44.470Z,14.9
2023-03-06T13:50:47.317Z,15.1
2023-03-06T13:51:49.585Z,14.9
2023-03-06T13:52:53.269Z,14.9
2023-03-06T13:53:57.149Z,15
2023-03-06T13:54:59.875Z,14.9
2023-03-06T13:56:02.460Z,14.9
2023-03-06T13:57:05.032Z,14.8
2023-03-06T13:58:07.617Z,15
2023-03-06T13:59:11.108Z,15
2023-03-06T14:00:16.212Z,14.9
2023-03-06T14:01:18.816Z,15
2023-03-06T14:02:21.372Z,15
2023-03-06T14:03:23.904Z,14.9
2023-03-06T14:04:26.343Z,15
2023-03-06T14:05:28.905Z,14.8
2023-03-06T14:06:30.879Z,14.8
2023-03-06T14:07:32.845Z,14.9
2023-03-06T14:08:35.386Z,14.9
2023-03-06T14:09:37.929Z,14.8
2023-03-06T14:10:40.167Z,15
2023-03-06T14:11:42.407Z,15
2023-03-06T14:12:44.944Z,15.1
2023-03-06T14:13:48.387Z,15.1
2023-03-06T14:14:50.650Z,14.9
2023-03-06T14:15:53.378Z,14.9
2023-03-06T14:16:56.112Z,14.8
2023-03-06T14:17:58.395Z,14.8
2023-03-06T14:19:01.087Z,14.9
2023-03-06T14:20:03.750Z,14.9
2023-03-06T14:21:06.339Z,14.9